createdAt,value
2019-04-28T00:00:42.901Z,976.06
2019-04-28T00:01:42.873Z,975.95
2019-04-28T00:02:42.853Z,975.97
2019-04-28T00:03:42.853Z,975.93
2019-04-28T00:04:42.837Z,975.90
2019-04-28T00:05:42.821Z,975.83
2019-04-28T00:06:42.820Z,975.84
2019-04-28T00:07:42.807Z,975.80
2019-04-28T00:08:42.991Z,975.85
2019-04-28T00:09:42.783Z,975.91
2019-04-28T00:10:42.767Z,975.94
2019-04-28T00:11:42.773Z,975.96
2019-04-28T00:12:42.748Z,976.02
2019-04-28T00:13:42.735Z,975.98
2019-04-28T00:14:42.732Z,975.99
2019-04-28T00:15:42.713Z,976.05
2019-04-28T00:16:42.888Z,976.09
2019-04-28T00:17:42.692Z,976.05
2019-04-28T00:18:42.686Z,976.02
2019-04-28T00:19:42.678Z,976.08
2019-04-28T00:20:42.667Z,976.08
2019-04-28T00:21:42.661Z,976.09
2019-04-28T00:22:42.641Z,976.07
2019-04-28T00:23:42.680Z,976.07
2019-04-28T00:24:42.618Z,976.16
2019-04-28T00:25:43.549Z,976.20
2019-04-28T00:26:42.609Z,976.14
2019-04-28T00:27:42.586Z,976.12
2019-04-28T00:28:42.573Z,976.21
2019-04-28T00:29:46.005Z,976.16
2019-04-28T00:30:42.552Z,976.12
2019-04-28T00:31:42.555Z,976.14
2019-04-28T00:32:42.532Z,976.10
2019-04-28T00:33:43.597Z,976.14
2019-04-28T00:34:42.573Z,976.14
2019-04-28T00:35:42.500Z,976.10
2019-04-28T00:36:43.042Z,976.11
2019-04-28T00:37:42.476Z,976.12
2019-04-28T00:38:42.510Z,976.07
2019-04-28T00:39:42.457Z,976.10
2019-04-28T00:40:42.447Z,976.02
2019-04-28T00:41:42.464Z,976.07
2019-04-28T00:42:42.423Z,976.04
2019-04-28T00:43:42.413Z,976.06
2019-04-28T00:44:43.363Z,976.03
2019-04-28T00:45:42.421Z,976.09
2019-04-28T00:46:42.386Z,976.04
2019-04-28T00:47:42.839Z,976.04
2019-04-28T00:48:42.365Z,976.03
2019-04-28T00:49:42.348Z,976.03
2019-04-28T00:50:43.761Z,976.00
2019-04-28T00:51:42.327Z,976.08
2019-04-28T00:52:42.336Z,976.10
2019-04-28T00:53:42.303Z,976.15
2019-04-28T00:54:42.293Z,976.19
2019-04-28T00:55:42.283Z,976.19
2019-04-28T00:56:42.273Z,976.18
2019-04-28T00:57:42.264Z,976.28
2019-04-28T00:58:42.250Z,976.23
2019-04-28T00:59:54.074Z,976.23
2019-04-28T01:00:43.256Z,976.18
2019-04-28T01:01:42.621Z,976.14
2019-04-28T01:02:42.219Z,976.16
2019-04-28T01:03:42.197Z,976.14
2019-04-28T01:04:42.189Z,976.07
2019-04-28T01:05:42.175Z,976.10
2019-04-28T01:06:43.045Z,976.06
2019-04-28T01:07:42.174Z,975.99
2019-04-28T01:08:42.142Z,976.03
2019-04-28T01:09:42.147Z,976.04
2019-04-28T01:10:42.131Z,976.00
2019-04-28T01:11:42.111Z,976.01
2019-04-28T01:12:42.127Z,976.02
2019-04-28T01:13:42.100Z,976.01
2019-04-28T01:14:43.530Z,976.03
2019-04-28T01:15:42.067Z,976.05
2019-04-28T01:16:42.064Z,975.96
2019-04-28T01:17:42.047Z,975.96
2019-04-28T01:18:42.034Z,976.02
2019-04-28T01:19:42.025Z,976.04
2019-04-28T01:20:42.014Z,976.05
2019-04-28T01:21:42.009Z,976.02
2019-04-28T01:22:41.998Z,976.04
2019-04-28T01:23:41.981Z,976.09
2019-04-28T01:24:41.969Z,976.08
2019-04-28T01:25:41.960Z,976.06
2019-04-28T01:26:41.965Z,976.10
2019-04-28T01:27:41.946Z,976.08
2019-04-28T01:28:41.926Z,976.10
2019-04-28T01:29:41.916Z,976.11
2019-04-28T01:30:41.952Z,976.12
2019-04-28T01:31:41.896Z,976.11
2019-04-28T01:32:41.895Z,976.07
2019-04-28T01:33:41.874Z,976.10
2019-04-28T01:34:41.870Z,976.09
2019-04-28T01:35:41.851Z,976.03
2019-04-28T01:36:41.841Z,976.07
2019-04-28T01:37:41.862Z,976.05
2019-04-28T01:38:41.820Z,976.12
2019-04-28T01:39:41.809Z,976.08
2019-04-28T01:40:41.801Z,976.08
2019-04-28T01:41:41.788Z,976.11
2019-04-28T01:42:41.786Z,976.08
2019-04-28T01:43:41.826Z,976.08
2019-04-28T01:44:41.755Z,976.05
2019-04-28T01:45:41.744Z,976.15
2019-04-28T01:46:41.737Z,976.15
2019-04-28T01:47:41.741Z,976.23
2019-04-28T01:48:41.713Z,976.24
2019-04-28T01:49:41.703Z,976.22
2019-04-28T01:50:41.691Z,976.33
2019-04-28T01:51:41.716Z,976.30
2019-04-28T01:52:41.683Z,976.32
2019-04-28T01:53:41.657Z,976.35
2019-04-28T01:54:41.648Z,976.36
2019-04-28T01:55:41.637Z,976.35
2019-04-28T01:56:41.636Z,976.48
2019-04-28T01:57:41.644Z,976.50
2019-04-28T01:58:41.605Z,976.49
2019-04-28T01:59:41.604Z,976.53
2019-04-28T02:00:41.584Z,976.51
2019-04-28T02:01:41.578Z,976.58
2019-04-28T02:02:41.563Z,976.56
2019-04-28T02:03:41.552Z,976.65
2019-04-28T02:04:41.542Z,976.65
2019-04-28T02:05:41.530Z,976.62
2019-04-28T02:06:41.554Z,976.59
2019-04-28T02:07:41.511Z,976.61
2019-04-28T02:08:41.501Z,976.66
2019-04-28T02:09:41.488Z,976.69
2019-04-28T02:10:41.475Z,976.69
2019-04-28T02:11:41.465Z,976.72
2019-04-28T02:12:41.457Z,976.74
2019-04-28T02:13:41.447Z,976.83
2019-04-28T02:14:41.438Z,976.82
2019-04-28T02:15:41.422Z,976.89
2019-04-28T02:16:41.411Z,976.89
2019-04-28T02:17:41.399Z,976.78
2019-04-28T02:18:41.405Z,976.82
2019-04-28T02:19:41.379Z,976.89
2019-04-28T02:20:41.372Z,976.82
2019-04-28T02:21:41.362Z,976.96
2019-04-28T02:22:41.350Z,976.79
2019-04-28T02:23:41.346Z,976.82
2019-04-28T02:24:41.324Z,976.91
2019-04-28T02:25:41.316Z,976.87
2019-04-28T02:26:41.312Z,976.87
2019-04-28T02:27:41.292Z,976.87
2019-04-28T02:28:41.293Z,976.86
2019-04-28T02:29:41.775Z,976.79
2019-04-28T02:30:48.891Z,976.84
2019-04-28T02:31:42.251Z,976.81
2019-04-28T02:32:41.246Z,976.78
2019-04-28T02:33:41.234Z,976.70
2019-04-28T02:34:41.525Z,976.79
2019-04-28T02:35:42.009Z,976.78
2019-04-28T02:36:41.196Z,976.77
2019-04-28T02:37:41.186Z,976.74
2019-04-28T02:38:41.654Z,976.77
2019-04-28T02:39:41.419Z,976.77
2019-04-28T02:40:41.156Z,976.76
2019-04-28T02:41:41.200Z,976.72
2019-04-28T02:42:41.270Z,976.75
2019-04-28T02:43:41.195Z,976.70
2019-04-28T02:44:41.114Z,976.71
2019-04-28T02:45:41.459Z,976.75
2019-04-28T02:46:41.089Z,976.72
2019-04-28T02:47:42.016Z,976.73
2019-04-28T02:48:41.335Z,976.73
2019-04-28T02:49:41.068Z,976.72
2019-04-28T02:50:41.267Z,976.78
2019-04-28T02:51:41.039Z,976.72
2019-04-28T02:52:41.636Z,976.69
2019-04-28T02:53:41.076Z,976.80
2019-04-28T02:54:41.007Z,976.72
2019-04-28T02:55:41.306Z,976.76
2019-04-28T02:56:43.778Z,976.65
2019-04-28T02:57:40.973Z,976.72
2019-04-28T02:58:41.736Z,976.70
2019-04-28T02:59:44.807Z,976.70
2019-04-28T03:00:43.063Z,976.70
2019-04-28T03:01:41.928Z,976.73
2019-04-28T03:02:41.646Z,976.74
2019-04-28T03:03:41.046Z,976.78
2019-04-28T03:04:41.154Z,976.80
2019-04-28T03:05:41.335Z,976.81
2019-04-28T03:06:40.946Z,976.80
2019-04-28T03:07:41.202Z,976.82
2019-04-28T03:08:40.852Z,976.77
2019-04-28T03:09:40.858Z,976.76
2019-04-28T03:10:41.227Z,976.79
2019-04-28T03:11:43.000Z,976.80
2019-04-28T03:12:41.577Z,976.77
2019-04-28T03:13:41.309Z,976.83
2019-04-28T03:14:43.969Z,976.89
2019-04-28T03:15:41.481Z,976.83
2019-04-28T03:16:41.139Z,976.93
2019-04-28T03:17:41.073Z,976.94
2019-04-28T03:18:41.389Z,976.94
2019-04-28T03:19:41.713Z,976.87
2019-04-28T03:20:41.797Z,976.94
2019-04-28T03:21:41.573Z,976.90
2019-04-28T03:22:41.133Z,976.98
2019-04-28T03:23:40.757Z,977.04
2019-04-28T03:24:41.409Z,977.05
2019-04-28T03:25:40.978Z,976.99
2019-04-28T03:26:41.334Z,977.03
2019-04-28T03:27:40.739Z,977.06
2019-04-28T03:28:41.415Z,977.01
2019-04-28T03:29:40.641Z,977.08
2019-04-28T03:30:43.818Z,977.05
2019-04-28T03:32:04.020Z,977.03
2019-04-28T03:32:52.237Z,977.08
2019-04-28T03:33:48.246Z,977.03
2019-04-28T03:34:43.562Z,977.05
2019-04-28T03:35:43.836Z,977.04
2019-04-28T03:36:41.008Z,977.05
2019-04-28T03:37:41.352Z,977.05
2019-04-28T03:38:40.744Z,977.02
2019-04-28T03:39:40.676Z,977.02
2019-04-28T03:40:41.417Z,977.04
2019-04-28T03:41:40.817Z,976.96
2019-04-28T03:42:41.099Z,977.00
2019-04-28T03:43:40.830Z,977.01
2019-04-28T03:44:41.415Z,977.03
2019-04-28T03:45:41.117Z,976.91
2019-04-28T03:46:41.333Z,976.95
2019-04-28T03:47:40.931Z,976.87
2019-04-28T03:48:40.952Z,976.89
2019-04-28T03:49:43.181Z,976.95
2019-04-28T03:50:41.353Z,976.94
2019-04-28T03:51:40.904Z,976.88
2019-04-28T03:52:41.509Z,976.80
2019-04-28T03:53:41.125Z,976.88
2019-04-28T03:54:41.167Z,976.85
2019-04-28T03:55:41.619Z,976.85
2019-04-28T03:56:41.327Z,976.76
2019-04-28T03:57:41.191Z,976.86
2019-04-28T03:58:40.752Z,976.78
2019-04-28T03:59:43.057Z,976.80
2019-04-28T04:00:41.010Z,976.86
2019-04-28T04:01:55.572Z,976.87
2019-04-28T04:02:41.468Z,976.85
2019-04-28T04:03:41.692Z,976.85
2019-04-28T04:04:41.412Z,976.84
2019-04-28T04:05:40.770Z,976.88
2019-04-28T04:06:40.888Z,976.86
2019-04-28T04:07:42.880Z,976.84
2019-04-28T04:08:40.955Z,976.75
2019-04-28T04:09:41.353Z,976.79
2019-04-28T04:10:40.465Z,976.78
2019-04-28T04:11:41.054Z,976.75
2019-04-28T04:12:41.230Z,976.74
2019-04-28T04:13:41.608Z,976.74
2019-04-28T04:14:41.161Z,976.65
2019-04-28T04:15:41.271Z,976.70
2019-04-28T04:16:40.653Z,976.70
2019-04-28T04:17:41.340Z,976.70
2019-04-28T04:18:40.859Z,976.70
2019-04-28T04:19:40.861Z,976.67
2019-04-28T04:20:40.891Z,976.71
2019-04-28T04:21:40.873Z,976.65
2019-04-28T04:22:41.141Z,976.74
2019-04-28T04:23:41.058Z,976.64
2019-04-28T04:24:40.562Z,976.72
2019-04-28T04:25:41.668Z,976.73
2019-04-28T04:26:40.994Z,976.81
2019-04-28T04:27:40.713Z,976.71
2019-04-28T04:28:41.650Z,976.77
2019-04-28T04:29:41.140Z,976.81
2019-04-28T04:30:40.895Z,976.86
2019-04-28T04:31:41.283Z,976.84
2019-04-28T04:32:41.173Z,976.81
2019-04-28T04:33:41.058Z,976.80
2019-04-28T04:34:40.761Z,976.87
2019-04-28T04:35:41.170Z,976.80
2019-04-28T04:36:41.752Z,976.78
2019-04-28T04:37:40.761Z,976.83
2019-04-28T04:38:45.703Z,976.83
2019-04-28T04:39:40.882Z,976.79
2019-04-28T04:40:41.198Z,976.82
2019-04-28T04:41:40.842Z,976.86
2019-04-28T04:42:40.493Z,976.91
2019-04-28T04:43:41.561Z,976.92
2019-04-28T04:44:41.558Z,976.96
2019-04-28T04:45:40.602Z,976.99
2019-04-28T04:46:41.433Z,976.92
2019-04-28T04:47:40.633Z,976.89
2019-04-28T04:48:40.811Z,976.90
2019-04-28T04:49:40.489Z,976.82
2019-04-28T04:50:41.187Z,976.83
2019-04-28T04:51:43.444Z,976.88
2019-04-28T04:52:40.402Z,976.83
2019-04-28T04:53:40.792Z,976.87
2019-04-28T04:54:40.234Z,976.89
2019-04-28T04:55:40.832Z,976.92
2019-04-28T04:56:40.265Z,976.89
2019-04-28T04:57:40.817Z,976.85
2019-04-28T04:58:40.680Z,976.86
2019-04-28T04:59:40.238Z,976.93
2019-04-28T05:00:40.471Z,976.79
2019-04-28T05:01:40.713Z,976.84
2019-04-28T05:02:41.151Z,976.85
2019-04-28T05:03:40.614Z,976.82
2019-04-28T05:04:39.687Z,976.91
2019-04-28T05:05:40.375Z,976.82
2019-04-28T05:06:41.522Z,976.79
2019-04-28T05:07:39.695Z,976.81
2019-04-28T05:08:40.020Z,976.84
2019-04-28T05:09:39.615Z,976.80
2019-04-28T05:10:40.396Z,976.87
2019-04-28T05:11:40.198Z,976.84
2019-04-28T05:12:40.417Z,976.90
2019-04-28T05:13:39.995Z,976.84
2019-04-28T05:14:39.642Z,976.87
2019-04-28T05:15:40.050Z,976.89
2019-04-28T05:16:39.986Z,976.89
2019-04-28T05:17:40.177Z,976.90
2019-04-28T05:18:41.655Z,976.86
2019-04-28T05:19:40.181Z,976.86
2019-04-28T05:20:40.380Z,976.83
2019-04-28T05:21:40.212Z,976.83
2019-04-28T05:22:40.037Z,976.77
2019-04-28T05:23:39.986Z,976.80
2019-04-28T05:24:40.268Z,976.85
2019-04-28T05:25:39.633Z,976.79
2019-04-28T05:26:40.925Z,976.85
2019-04-28T05:27:40.355Z,976.79
2019-04-28T05:28:44.070Z,976.77
2019-04-28T05:29:40.335Z,976.73
2019-04-28T05:30:42.852Z,976.77
2019-04-28T05:31:40.160Z,976.85
2019-04-28T05:32:45.209Z,976.83
2019-04-28T05:33:42.110Z,976.75
2019-04-28T05:34:46.401Z,976.75
2019-04-28T05:35:40.268Z,976.74
2019-04-28T05:36:43.911Z,976.76
2019-04-28T05:37:41.115Z,976.73
2019-04-28T05:38:40.492Z,976.75
2019-04-28T05:39:40.479Z,976.78
2019-04-28T05:40:39.927Z,976.65
2019-04-28T05:41:40.010Z,976.69
2019-04-28T05:42:39.489Z,976.70
2019-04-28T05:43:40.474Z,976.65
2019-04-28T05:44:40.832Z,976.61
2019-04-28T05:45:39.724Z,976.64
2019-04-28T05:46:40.223Z,976.65
2019-04-28T05:47:40.805Z,976.55
2019-04-28T05:48:40.833Z,976.55
2019-04-28T05:49:39.699Z,976.66
2019-04-28T05:50:40.104Z,976.44
2019-04-28T05:51:40.265Z,976.53
2019-04-28T05:52:40.344Z,976.47
2019-04-28T05:53:40.339Z,976.51
2019-04-28T05:54:40.351Z,976.43
2019-04-28T05:55:39.351Z,976.41
2019-04-28T05:56:39.764Z,976.50
2019-04-28T05:57:39.767Z,976.46
2019-04-28T05:58:40.189Z,976.56
2019-04-28T05:59:40.320Z,976.50
2019-04-28T06:00:39.984Z,976.49
2019-04-28T06:01:40.620Z,976.56
2019-04-28T06:02:39.668Z,976.52
2019-04-28T06:03:40.553Z,976.50
2019-04-28T06:04:40.524Z,976.56
2019-04-28T06:05:39.457Z,976.56
2019-04-28T06:06:40.517Z,976.51
2019-04-28T06:07:40.483Z,976.54
2019-04-28T06:08:40.680Z,976.54
2019-04-28T06:09:39.915Z,976.57
2019-04-28T06:10:39.956Z,976.54
2019-04-28T06:11:39.807Z,976.52
2019-04-28T06:12:40.594Z,976.61
2019-04-28T06:13:40.173Z,976.57
2019-04-28T06:14:40.291Z,976.56
2019-04-28T06:15:39.674Z,976.58
2019-04-28T06:16:40.698Z,976.64
2019-04-28T06:17:39.735Z,976.56
2019-04-28T06:18:39.498Z,976.65
2019-04-28T06:19:40.316Z,976.65
2019-04-28T06:20:40.538Z,976.70
2019-04-28T06:21:38.778Z,976.67
2019-04-28T06:22:38.764Z,976.67
2019-04-28T06:23:38.763Z,976.72
2019-04-28T06:24:38.741Z,976.76
2019-04-28T06:25:38.733Z,976.75
2019-04-28T06:26:38.721Z,976.73
2019-04-28T06:27:38.793Z,976.84
2019-04-28T06:28:38.702Z,976.80
2019-04-28T06:29:38.686Z,976.72
2019-04-28T06:30:38.678Z,976.80
2019-04-28T06:31:38.665Z,976.87
2019-04-28T06:32:38.655Z,976.83
2019-04-28T06:33:38.645Z,976.88
2019-04-28T06:34:38.635Z,976.95
2019-04-28T06:35:38.625Z,977.02
2019-04-28T06:36:38.609Z,977.05
2019-04-28T06:37:38.616Z,977.00
2019-04-28T06:38:38.592Z,977.01
2019-04-28T06:39:38.577Z,976.99
2019-04-28T06:40:38.582Z,977.10
2019-04-28T06:41:38.597Z,977.06
2019-04-28T06:42:38.547Z,977.05
2019-04-28T06:43:38.539Z,977.12
2019-04-28T06:44:38.528Z,977.07
2019-04-28T06:45:38.516Z,977.06
2019-04-28T06:46:38.530Z,977.10
2019-04-28T06:47:38.510Z,977.12
2019-04-28T06:48:38.518Z,977.08
2019-04-28T06:49:38.482Z,977.16
2019-04-28T06:50:38.458Z,977.00
2019-04-28T06:51:38.449Z,977.07
2019-04-28T06:52:38.442Z,977.13
2019-04-28T06:53:38.441Z,977.06
2019-04-28T06:54:38.436Z,977.08
2019-04-28T06:55:38.406Z,977.11
2019-04-28T06:56:38.405Z,977.06
2019-04-28T06:57:38.383Z,977.03
2019-04-28T06:58:38.384Z,976.97
2019-04-28T06:59:38.372Z,977.01
2019-04-28T07:00:38.351Z,977.07
2019-04-28T07:01:38.356Z,977.04
2019-04-28T07:02:38.337Z,977.04
2019-04-28T07:03:38.395Z,977.00
2019-04-28T07:04:38.307Z,977.03
2019-04-28T07:05:38.297Z,977.08
2019-04-28T07:06:38.287Z,977.06
2019-04-28T07:07:38.282Z,977.14
2019-04-28T07:08:38.282Z,977.10
2019-04-28T07:09:38.260Z,977.17
2019-04-28T07:10:38.314Z,977.10
2019-04-28T07:11:38.232Z,977.08
2019-04-28T07:12:38.223Z,977.11
2019-04-28T07:13:38.230Z,977.13
2019-04-28T07:14:38.246Z,977.15
2019-04-28T07:15:38.192Z,977.18
2019-04-28T07:16:38.179Z,977.21
2019-04-28T07:17:38.188Z,977.18
2019-04-28T07:18:38.173Z,977.22
2019-04-28T07:19:38.148Z,977.16
2019-04-28T07:20:38.160Z,977.24
2019-04-28T07:21:38.147Z,977.22
2019-04-28T07:22:38.116Z,977.16
2019-04-28T07:23:38.101Z,977.22
2019-04-28T07:24:38.099Z,977.16
2019-04-28T07:25:38.123Z,977.14
2019-04-28T07:26:38.071Z,977.10
2019-04-28T07:27:38.061Z,977.18
2019-04-28T07:28:38.049Z,977.09
2019-04-28T07:29:38.041Z,977.13
2019-04-28T07:30:38.025Z,977.15
2019-04-28T07:31:38.015Z,977.19
2019-04-28T07:32:38.099Z,977.13
2019-04-28T07:33:37.997Z,977.14
2019-04-28T07:34:37.992Z,977.19
2019-04-28T07:35:37.971Z,977.20
2019-04-28T07:36:37.969Z,977.19
2019-04-28T07:37:37.956Z,977.17
2019-04-28T07:38:37.953Z,977.18
2019-04-28T07:39:38.044Z,977.21
2019-04-28T07:40:37.919Z,977.16
2019-04-28T07:41:37.913Z,977.22
2019-04-28T07:42:37.904Z,977.21
2019-04-28T07:43:37.891Z,977.23
2019-04-28T07:44:37.884Z,977.20
2019-04-28T07:45:37.866Z,977.27
2019-04-28T07:46:37.853Z,977.29
2019-04-28T07:47:37.844Z,977.25
2019-04-28T07:48:37.841Z,977.26
2019-04-28T07:49:37.831Z,977.27
2019-04-28T07:50:37.810Z,977.29
2019-04-28T07:51:37.807Z,977.28
2019-04-28T07:52:37.791Z,977.31
2019-04-28T07:53:37.780Z,977.32
2019-04-28T07:54:40.051Z,977.34
2019-04-28T07:55:37.761Z,977.34
2019-04-28T07:56:37.761Z,977.34
2019-04-28T07:57:37.764Z,977.38
2019-04-28T07:58:37.725Z,977.34
2019-04-28T07:59:37.733Z,977.36
2019-04-28T08:00:37.712Z,977.37
2019-04-28T08:01:37.698Z,977.35
2019-04-28T08:02:37.686Z,977.34
2019-04-28T08:03:48.829Z,977.33
2019-04-28T08:04:38.671Z,977.32
2019-04-28T08:05:37.650Z,977.34
2019-04-28T08:06:37.642Z,977.31
2019-04-28T08:07:37.641Z,977.30
2019-04-28T08:08:37.639Z,977.33
2019-04-28T08:09:37.616Z,977.38
2019-04-28T08:10:37.597Z,977.34
2019-04-28T08:11:37.588Z,977.32
2019-04-28T08:12:37.578Z,977.33
2019-04-28T08:13:37.564Z,977.31
2019-04-28T08:14:37.564Z,977.34
2019-04-28T08:15:37.544Z,977.40
2019-04-28T08:16:37.535Z,977.35
2019-04-28T08:17:37.523Z,977.40
2019-04-28T08:18:37.512Z,977.44
2019-04-28T08:19:37.517Z,977.41
2019-04-28T08:20:37.504Z,977.39
2019-04-28T08:21:37.496Z,977.40
2019-04-28T08:22:37.469Z,977.39
2019-04-28T08:23:46.854Z,977.40
2019-04-28T08:24:38.497Z,977.42
2019-04-28T08:25:37.437Z,977.35
2019-04-28T08:26:37.427Z,977.39
2019-04-28T08:27:37.418Z,977.41
2019-04-28T08:28:37.412Z,977.38
2019-04-28T08:29:37.415Z,977.43
2019-04-28T08:30:37.454Z,977.47
2019-04-28T08:31:37.388Z,977.43
2019-04-28T08:32:37.385Z,977.42
2019-04-28T08:33:37.392Z,977.42
2019-04-28T08:34:37.458Z,977.43
2019-04-28T08:35:37.398Z,977.42
2019-04-28T08:36:37.336Z,977.38
2019-04-28T08:37:37.362Z,977.44
2019-04-28T08:38:37.330Z,977.42
2019-04-28T08:39:37.390Z,977.36
2019-04-28T08:40:37.365Z,977.39
2019-04-28T08:41:37.286Z,977.42
2019-04-28T08:42:37.257Z,977.40
2019-04-28T08:43:37.248Z,977.46
2019-04-28T08:44:37.279Z,977.43
2019-04-28T08:45:37.226Z,977.42
2019-04-28T08:46:37.373Z,977.45
2019-04-28T08:47:37.211Z,977.47
2019-04-28T08:48:37.265Z,977.40
2019-04-28T08:49:37.185Z,977.40
2019-04-28T08:50:37.176Z,977.34
2019-04-28T08:51:37.167Z,977.39
2019-04-28T08:52:37.155Z,977.28
2019-04-28T08:53:37.147Z,977.20
2019-04-28T08:54:37.132Z,977.23
2019-04-28T08:55:37.126Z,977.23
2019-04-28T08:56:37.114Z,977.27
2019-04-28T08:57:37.109Z,977.34
2019-04-28T08:58:37.089Z,977.32
2019-04-28T08:59:37.078Z,977.27
2019-04-28T09:00:37.074Z,977.22
2019-04-28T09:01:37.059Z,977.26
2019-04-28T09:02:37.047Z,977.31
2019-04-28T09:03:37.039Z,977.30
2019-04-28T09:04:37.039Z,977.33
2019-04-28T09:05:37.057Z,977.25
2019-04-28T09:06:37.018Z,977.25
2019-04-28T09:07:36.995Z,977.29
2019-04-28T09:08:36.983Z,977.22
2019-04-28T09:09:36.971Z,977.15
2019-04-28T09:10:36.961Z,977.14
2019-04-28T09:11:36.952Z,977.16
2019-04-28T09:12:36.939Z,977.15
2019-04-28T09:13:36.934Z,977.10
2019-04-28T09:14:36.966Z,977.05
2019-04-28T09:15:36.907Z,977.06
2019-04-28T09:16:36.893Z,977.08
2019-04-28T09:17:36.886Z,977.07
2019-04-28T09:18:36.874Z,977.04
2019-04-28T09:19:36.864Z,977.00
2019-04-28T09:20:36.861Z,977.06
2019-04-28T09:21:36.880Z,977.04
2019-04-28T09:22:36.830Z,977.10
2019-04-28T09:23:36.820Z,977.07
2019-04-28T09:24:36.811Z,977.11
2019-04-28T09:25:36.803Z,977.08
2019-04-28T09:26:37.183Z,977.07
2019-04-28T09:27:36.778Z,977.03
2019-04-28T09:28:36.828Z,977.11
2019-04-28T09:29:36.763Z,977.12
2019-04-28T09:30:36.758Z,977.03
2019-04-28T09:31:36.735Z,977.06
2019-04-28T09:32:36.728Z,977.08
2019-04-28T09:33:36.716Z,977.13
2019-04-28T09:34:36.703Z,977.16
2019-04-28T09:35:36.699Z,977.12
2019-04-28T09:36:36.690Z,977.09
2019-04-28T09:37:36.671Z,977.13
2019-04-28T09:38:36.660Z,977.12
2019-04-28T09:39:36.653Z,977.12
2019-04-28T09:40:36.645Z,977.01
2019-04-28T09:41:36.632Z,977.06
2019-04-28T09:42:36.619Z,977.00
2019-04-28T09:43:36.623Z,977.02
2019-04-28T09:44:36.599Z,976.98
2019-04-28T09:45:36.591Z,976.99
2019-04-28T09:46:36.575Z,976.99
2019-04-28T09:47:36.569Z,976.94
2019-04-28T09:48:36.557Z,976.95
2019-04-28T09:49:36.546Z,976.87
2019-04-28T09:50:36.556Z,976.84
2019-04-28T09:51:36.521Z,976.86
2019-04-28T09:52:36.512Z,976.96
2019-04-28T09:53:36.498Z,976.94
2019-04-28T09:54:36.489Z,976.92
2019-04-28T09:55:36.480Z,976.95
2019-04-28T09:56:36.467Z,976.92
2019-04-28T09:57:36.471Z,976.94
2019-04-28T09:58:36.453Z,976.95
2019-04-28T09:59:36.443Z,976.94
2019-04-28T10:00:36.429Z,976.93
2019-04-28T10:01:36.413Z,976.90
2019-04-28T10:02:36.407Z,976.94
2019-04-28T10:03:36.396Z,976.95
2019-04-28T10:04:41.669Z,976.96
2019-04-28T10:05:37.399Z,976.91
2019-04-28T10:06:36.365Z,976.93
2019-04-28T10:07:36.351Z,976.94
2019-04-28T10:08:36.697Z,976.96
2019-04-28T10:09:36.329Z,976.96
2019-04-28T10:10:36.345Z,976.95
2019-04-28T10:11:36.308Z,976.95
2019-04-28T10:12:36.383Z,977.03
2019-04-28T10:13:36.285Z,976.98
2019-04-28T10:14:36.274Z,977.06
2019-04-28T10:15:36.264Z,977.03
2019-04-28T10:16:36.255Z,976.96
2019-04-28T10:17:36.245Z,976.99
2019-04-28T10:18:36.241Z,976.95
2019-04-28T10:19:36.385Z,976.94
2019-04-28T10:20:36.218Z,976.90
2019-04-28T10:21:36.209Z,977.00
2019-04-28T10:22:36.195Z,976.99
2019-04-28T10:23:36.187Z,976.99
2019-04-28T10:24:36.170Z,976.99
2019-04-28T10:25:36.157Z,976.96
2019-04-28T10:26:36.159Z,976.97
2019-04-28T10:27:36.135Z,977.01
2019-04-28T10:28:36.126Z,976.99
2019-04-28T10:29:36.118Z,976.99
2019-04-28T10:30:36.104Z,976.95
2019-04-28T10:31:36.106Z,976.89
2019-04-28T10:32:36.080Z,976.87
2019-04-28T10:33:36.080Z,976.87
2019-04-28T10:34:36.127Z,976.83
2019-04-28T10:35:36.070Z,976.83
2019-04-28T10:36:36.047Z,976.85
2019-04-28T10:37:36.030Z,976.85
2019-04-28T10:38:36.015Z,976.88
2019-04-28T10:39:36.005Z,976.92
2019-04-28T10:40:35.998Z,976.94
2019-04-28T10:41:35.998Z,976.91
2019-04-28T10:42:35.984Z,976.86
2019-04-28T10:43:35.959Z,976.91
2019-04-28T10:44:35.959Z,976.92
2019-04-28T10:45:35.942Z,976.90
2019-04-28T10:46:35.946Z,976.96
2019-04-28T10:47:35.917Z,976.93
2019-04-28T10:48:35.933Z,976.92
2019-04-28T10:49:35.896Z,976.94
2019-04-28T10:50:35.938Z,976.95
2019-04-28T10:51:35.887Z,976.91
2019-04-28T10:52:35.861Z,976.88
2019-04-28T10:53:35.854Z,976.89
2019-04-28T10:54:35.845Z,976.86
2019-04-28T10:55:35.834Z,976.77
2019-04-28T10:56:35.833Z,976.82
2019-04-28T10:57:35.831Z,976.82
2019-04-28T10:58:35.798Z,976.78
2019-04-28T10:59:35.786Z,976.80
2019-04-28T11:00:35.776Z,976.76
2019-04-28T11:01:35.779Z,976.70
2019-04-28T11:02:35.754Z,976.70
2019-04-28T11:03:35.748Z,976.68
2019-04-28T11:04:35.742Z,976.70
2019-04-28T11:05:35.722Z,976.70
2019-04-28T11:06:35.752Z,976.66
2019-04-28T11:07:35.712Z,976.59
2019-04-28T11:08:35.692Z,976.57
2019-04-28T11:09:35.686Z,976.51
2019-04-28T11:10:35.682Z,976.53
2019-04-28T11:11:35.662Z,976.47
2019-04-28T11:12:35.701Z,976.45
2019-04-28T11:13:35.645Z,976.53
2019-04-28T11:14:35.630Z,976.56
2019-04-28T11:15:35.620Z,976.50
2019-04-28T11:16:35.608Z,976.48
2019-04-28T11:17:35.722Z,976.57
2019-04-28T11:18:35.603Z,976.52
2019-04-28T11:19:35.580Z,976.49
2019-04-28T11:20:35.564Z,976.48
2019-04-28T11:21:35.556Z,976.44
2019-04-28T11:22:35.547Z,976.50
2019-04-28T11:23:35.540Z,976.46
2019-04-28T11:24:35.568Z,976.44
2019-04-28T11:25:35.512Z,976.52
2019-04-28T11:26:35.557Z,976.53
2019-04-28T11:27:35.502Z,976.55
2019-04-28T11:28:37.795Z,976.49
2019-04-28T11:29:35.487Z,976.52
2019-04-28T11:30:35.464Z,976.52
2019-04-28T11:31:35.455Z,976.55
2019-04-28T11:32:35.445Z,976.49
2019-04-28T11:33:35.465Z,976.49
2019-04-28T11:34:35.416Z,976.54
2019-04-28T11:35:35.403Z,976.56
2019-04-28T11:36:35.397Z,976.53
2019-04-28T11:37:35.394Z,976.58
2019-04-28T11:38:35.374Z,976.60
2019-04-28T11:39:35.370Z,976.50
2019-04-28T11:40:35.351Z,976.55
2019-04-28T11:41:35.348Z,976.58
2019-04-28T11:42:35.377Z,976.58
2019-04-28T11:43:35.354Z,976.55
2019-04-28T11:44:35.307Z,976.52
2019-04-28T11:45:35.295Z,976.55
2019-04-28T11:46:35.388Z,976.60
2019-04-28T11:47:35.280Z,976.55
2019-04-28T11:48:35.267Z,976.54
2019-04-28T11:49:35.312Z,976.63
2019-04-28T11:50:35.241Z,976.47
2019-04-28T11:51:35.231Z,976.51
2019-04-28T11:52:35.226Z,976.44
2019-04-28T11:53:35.225Z,976.48
2019-04-28T11:54:35.205Z,976.42
2019-04-28T11:55:35.189Z,976.41
2019-04-28T11:56:41.150Z,976.41
2019-04-28T11:57:36.177Z,976.39
2019-04-28T11:58:35.155Z,976.38
2019-04-28T11:59:35.157Z,976.35
2019-04-28T12:00:35.141Z,976.41
2019-04-28T12:01:35.126Z,976.36
2019-04-28T12:02:35.125Z,976.39
2019-04-28T12:03:35.108Z,976.40
2019-04-28T12:04:35.099Z,976.36
2019-04-28T12:05:35.091Z,976.36
2019-04-28T12:06:35.071Z,976.35
2019-04-28T12:07:35.072Z,976.40
2019-04-28T12:08:35.137Z,976.42
2019-04-28T12:09:35.043Z,976.43
2019-04-28T12:10:35.036Z,976.42
2019-04-28T12:11:35.028Z,976.46
2019-04-28T12:12:35.036Z,976.44
2019-04-28T12:13:35.000Z,976.34
2019-04-28T12:14:35.005Z,976.42
2019-04-28T12:15:35.051Z,976.41
2019-04-28T12:16:34.968Z,976.44
2019-04-28T12:17:35.211Z,976.39
2019-04-28T12:18:34.947Z,976.38
2019-04-28T12:19:34.935Z,976.42
2019-04-28T12:20:34.931Z,976.40
2019-04-28T12:21:34.912Z,976.41
2019-04-28T12:22:34.929Z,976.42
2019-04-28T12:23:34.896Z,976.41
2019-04-28T12:24:34.886Z,976.39
2019-04-28T12:25:34.871Z,976.38
2019-04-28T12:26:34.867Z,976.43
2019-04-28T12:27:34.883Z,976.47
2019-04-28T12:28:34.844Z,976.46